DLH8LW EFHK-EDDH
Flight info
| Callsign | DLH8LW |
|---|---|
| Flight time | 1h 35m |
| Altitude | 38000 |
| Route | NUNTO Y369 REKDO DCT KOSKA DCT GIMRU T503 MICOS N850 BOGMU BOGMU3P |
| Aircraft | A20N/M-SDE2E3FGHIRWXY/LB1 |
Departure
| Time | 2026-04-26 13:12 |
|---|---|
| Airport | Helsinki Vantaa Airport (EFHK) |
Arrival
| Time | 2026-04-26 14:47 |
|---|---|
| Airport | Hamburg Helmut Schmidt Airport (EDDH) |
| Time | Latitude | Longitude | Altitude | Speed | Heading |
|---|---|---|---|---|---|
| 2026-04-26 12:53 | 60.31480 | 24.97401 | 164 ft | 0 kts | 243° |
| 2026-04-26 13:03 | 60.31484 | 24.97415 | 164 ft | 2 kts | 243° |
| 2026-04-26 13:03 | 60.31491 | 24.97442 | 164 ft | 2 kts | 243° |
| 2026-04-26 13:03 | 60.31497 | 24.97467 | 164 ft | 0 kts | 243° |
| 2026-04-26 13:04 | 60.31502 | 24.97486 | 164 ft | 2 kts | 219° |
| 2026-04-26 13:04 | 60.31516 | 24.97500 | 164 ft | 2 kts | 188° |
| 2026-04-26 13:04 | 60.31530 | 24.97498 | 164 ft | 1 kts | 158° |
| 2026-04-26 13:04 | 60.31536 | 24.97492 | 164 ft | 1 kts | 150° |
| 2026-04-26 13:05 | 60.31538 | 24.97490 | 164 ft | 0 kts | 152° |
| 2026-04-26 13:08 | 60.31533 | 24.97495 | 164 ft | 2 kts | 152° |
| 2026-04-26 13:08 | 60.31506 | 24.97525 | 164 ft | 6 kts | 148° |
| 2026-04-26 13:08 | 60.31459 | 24.97577 | 164 ft | 8 kts | 152° |
| 2026-04-26 13:08 | 60.31399 | 24.97642 | 164 ft | 10 kts | 145° |
| 2026-04-26 13:09 | 60.31383 | 24.97741 | 163 ft | 9 kts | 75° |
| 2026-04-26 13:09 | 60.31338 | 24.97845 | 162 ft | 12 kts | 153° |
| 2026-04-26 13:09 | 60.31258 | 24.97930 | 162 ft | 14 kts | 152° |
| 2026-04-26 13:09 | 60.31154 | 24.98037 | 163 ft | 18 kts | 153° |
| 2026-04-26 13:10 | 60.31030 | 24.98161 | 164 ft | 17 kts | 156° |
| 2026-04-26 13:10 | 60.30973 | 24.98250 | 163 ft | 10 kts | 108° |
| 2026-04-26 13:10 | 60.31001 | 24.98423 | 157 ft | 12 kts | 62° |
| 2026-04-26 13:10 | 60.31040 | 24.98481 | 157 ft | 6 kts | 345° |
| 2026-04-26 13:11 | 60.31082 | 24.98443 | 157 ft | 7 kts | 333° |
| 2026-04-26 13:11 | 60.31221 | 24.98301 | 157 ft | 55 kts | 333° |
| 2026-04-26 13:11 | 60.31778 | 24.97733 | 158 ft | 122 kts | 333° |
| 2026-04-26 13:11 | 60.32667 | 24.96832 | 405 ft | 155 kts | 333° |
| 2026-04-26 13:12 | 60.33606 | 24.95836 | 1174 ft | 155 kts | 326° |
| 2026-04-26 13:12 | 60.34293 | 24.94245 | 2073 ft | 158 kts | 304° |
| 2026-04-26 13:12 | 60.34576 | 24.92099 | 2896 ft | 164 kts | 290° |
| 2026-04-26 13:12 | 60.34758 | 24.89754 | 3381 ft | 179 kts | 290° |
| 2026-04-26 13:13 | 60.35006 | 24.87199 | 3832 ft | 197 kts | 289° |
| 2026-04-26 13:13 | 60.34927 | 24.84192 | 4002 ft | 242 kts | 259° |
| 2026-04-26 13:13 | 60.34087 | 24.80990 | 4598 ft | 267 kts | 245° |
| 2026-04-26 13:13 | 60.33073 | 24.77827 | 5299 ft | 278 kts | 245° |
| 2026-04-26 13:14 | 60.32050 | 24.74504 | 6215 ft | 281 kts | 247° |
| 2026-04-26 13:14 | 60.31071 | 24.71117 | 7150 ft | 283 kts | 248° |
| 2026-04-26 13:14 | 60.30118 | 24.67673 | 8083 ft | 285 kts | 248° |
| 2026-04-26 13:14 | 60.29166 | 24.64186 | 8994 ft | 288 kts | 248° |
| 2026-04-26 13:15 | 60.28216 | 24.60717 | 9866 ft | 290 kts | 248° |
| 2026-04-26 13:15 | 60.27222 | 24.57083 | 10550 ft | 301 kts | 248° |
| 2026-04-26 13:15 | 60.26202 | 24.53343 | 10987 ft | 319 kts | 247° |
| 2026-04-26 13:15 | 60.25473 | 24.50680 | 11249 ft | 331 kts | 247° |
| 2026-04-26 13:16 | 60.23945 | 24.45128 | 11942 ft | 349 kts | 246° |
| 2026-04-26 13:16 | 60.22765 | 24.40871 | 12714 ft | 353 kts | 245° |
| 2026-04-26 13:16 | 60.21569 | 24.36559 | 13523 ft | 356 kts | 245° |
| 2026-04-26 13:16 | 60.20364 | 24.32230 | 14283 ft | 359 kts | 244° |
| 2026-04-26 13:17 | 60.17896 | 24.23363 | 15751 ft | 367 kts | 243° |
| 2026-04-26 13:17 | 60.16665 | 24.18957 | 16446 ft | 370 kts | 243° |
| 2026-04-26 13:18 | 60.14127 | 24.09894 | 17810 ft | 377 kts | 243° |
| 2026-04-26 13:18 | 60.12840 | 24.05306 | 18479 ft | 380 kts | 243° |
| 2026-04-26 13:18 | 60.10229 | 23.96035 | 19607 ft | 386 kts | 243° |
| 2026-04-26 13:19 | 60.08911 | 23.91379 | 19769 ft | 387 kts | 243° |
| 2026-04-26 13:19 | 60.07600 | 23.86647 | 19793 ft | 388 kts | 245° |
| 2026-04-26 13:19 | 60.06354 | 23.81899 | 20167 ft | 394 kts | 246° |
| 2026-04-26 13:19 | 60.05098 | 23.77066 | 20850 ft | 394 kts | 246° |
| 2026-04-26 13:20 | 60.03832 | 23.72217 | 21449 ft | 397 kts | 246° |
| 2026-04-26 13:20 | 60.02548 | 23.67316 | 21981 ft | 401 kts | 247° |
| 2026-04-26 13:20 | 60.01244 | 23.62354 | 22491 ft | 405 kts | 248° |
| 2026-04-26 13:20 | 59.99931 | 23.57374 | 23005 ft | 409 kts | 248° |
| 2026-04-26 13:21 | 59.98605 | 23.52360 | 23483 ft | 413 kts | 248° |
| 2026-04-26 13:21 | 59.97699 | 23.48944 | 23788 ft | 416 kts | 249° |
| 2026-04-26 13:21 | 59.95896 | 23.42150 | 24379 ft | 421 kts | 249° |
| 2026-04-26 13:21 | 59.94513 | 23.36969 | 24810 ft | 425 kts | 250° |
| 2026-04-26 13:22 | 59.93121 | 23.31753 | 25253 ft | 428 kts | 249° |
| 2026-04-26 13:22 | 59.91714 | 23.26494 | 25699 ft | 432 kts | 249° |
| 2026-04-26 13:22 | 59.90297 | 23.21212 | 26141 ft | 434 kts | 249° |
| 2026-04-26 13:22 | 59.88879 | 23.15942 | 26528 ft | 438 kts | 250° |
| 2026-04-26 13:23 | 59.87431 | 23.10571 | 26911 ft | 441 kts | 250° |
| 2026-04-26 13:23 | 59.85986 | 23.05218 | 27277 ft | 444 kts | 250° |
| 2026-04-26 13:23 | 59.84521 | 22.99807 | 27638 ft | 446 kts | 250° |
| 2026-04-26 13:23 | 59.83054 | 22.94405 | 27984 ft | 448 kts | 251° |
| 2026-04-26 13:24 | 59.81581 | 22.88988 | 28275 ft | 450 kts | 251° |
| 2026-04-26 13:24 | 59.80087 | 22.83518 | 28546 ft | 453 kts | 251° |
| 2026-04-26 13:24 | 59.78582 | 22.78018 | 28803 ft | 456 kts | 251° |
| 2026-04-26 13:24 | 59.77073 | 22.72512 | 29067 ft | 458 kts | 251° |
| 2026-04-26 13:25 | 59.75555 | 22.66996 | 29412 ft | 457 kts | 251° |
| 2026-04-26 13:25 | 59.74039 | 22.61506 | 29737 ft | 457 kts | 251° |
| 2026-04-26 13:25 | 59.72502 | 22.55956 | 30110 ft | 455 kts | 252° |
| 2026-04-26 13:25 | 59.70987 | 22.50497 | 30438 ft | 454 kts | 252° |
| 2026-04-26 13:26 | 59.69469 | 22.45028 | 30724 ft | 453 kts | 252° |
| 2026-04-26 13:26 | 59.67963 | 22.39599 | 31012 ft | 452 kts | 252° |
| 2026-04-26 13:26 | 59.66463 | 22.34211 | 31260 ft | 452 kts | 251° |
| 2026-04-26 13:26 | 59.64953 | 22.28805 | 31507 ft | 452 kts | 251° |
| 2026-04-26 13:27 | 59.63437 | 22.23387 | 31745 ft | 453 kts | 251° |
| 2026-04-26 13:27 | 59.61905 | 22.17929 | 32014 ft | 452 kts | 251° |
| 2026-04-26 13:27 | 59.60392 | 22.12555 | 32317 ft | 451 kts | 250° |
| 2026-04-26 13:27 | 59.58879 | 22.07193 | 32598 ft | 450 kts | 250° |
| 2026-04-26 13:28 | 59.57352 | 22.01790 | 32842 ft | 450 kts | 250° |
| 2026-04-26 13:28 | 59.55829 | 21.96416 | 33044 ft | 452 kts | 250° |
| 2026-04-26 13:28 | 59.54305 | 21.91048 | 33311 ft | 450 kts | 250° |
| 2026-04-26 13:28 | 59.52780 | 21.85705 | 33642 ft | 449 kts | 250° |
| 2026-04-26 13:29 | 59.51261 | 21.80383 | 33903 ft | 449 kts | 250° |
| 2026-04-26 13:29 | 59.50247 | 21.76835 | 34058 ft | 449 kts | 249° |
| 2026-04-26 13:29 | 59.48204 | 21.69707 | 34415 ft | 448 kts | 249° |
| 2026-04-26 13:29 | 59.46674 | 21.64389 | 34640 ft | 449 kts | 249° |
| 2026-04-26 13:30 | 59.45140 | 21.59069 | 34832 ft | 450 kts | 249° |
| 2026-04-26 13:30 | 59.43604 | 21.53747 | 35021 ft | 451 kts | 249° |
| 2026-04-26 13:30 | 59.42059 | 21.48406 | 35206 ft | 452 kts | 249° |
| 2026-04-26 13:30 | 59.40499 | 21.43019 | 35394 ft | 453 kts | 249° |
| 2026-04-26 13:31 | 59.38949 | 21.37692 | 35560 ft | 454 kts | 249° |
| 2026-04-26 13:31 | 59.37394 | 21.32348 | 35724 ft | 454 kts | 248° |
| 2026-04-26 13:31 | 59.35830 | 21.26989 | 35840 ft | 457 kts | 248° |
| 2026-04-26 13:31 | 59.34260 | 21.21617 | 35946 ft | 458 kts | 247° |
| 2026-04-26 13:32 | 59.32666 | 21.16183 | 35961 ft | 457 kts | 248° |
| 2026-04-26 13:32 | 59.29511 | 21.05472 | 35976 ft | 458 kts | 248° |
| 2026-04-26 13:33 | 59.26335 | 20.94731 | 35983 ft | 457 kts | 248° |
| 2026-04-26 13:33 | 59.23167 | 20.84059 | 35977 ft | 456 kts | 248° |
| 2026-04-26 13:34 | 59.19978 | 20.73377 | 35994 ft | 456 kts | 247° |
| 2026-04-26 13:34 | 59.16430 | 20.63088 | 35992 ft | 464 kts | 240° |
| 2026-04-26 13:35 | 59.12462 | 20.53261 | 35997 ft | 464 kts | 240° |
| 2026-04-26 13:35 | 59.08451 | 20.43373 | 35993 ft | 465 kts | 240° |
| 2026-04-26 13:36 | 59.04473 | 20.33594 | 35999 ft | 465 kts | 239° |
| 2026-04-26 13:36 | 59.00451 | 20.23751 | 36009 ft | 465 kts | 239° |
| 2026-04-26 13:37 | 58.96445 | 20.13980 | 36016 ft | 465 kts | 239° |
| 2026-04-26 13:37 | 58.92439 | 20.04261 | 36021 ft | 464 kts | 239° |
| 2026-04-26 13:38 | 58.88419 | 19.94533 | 36014 ft | 465 kts | 239° |
| 2026-04-26 13:38 | 58.84370 | 19.84784 | 36021 ft | 465 kts | 239° |
| 2026-04-26 13:39 | 58.80343 | 19.75129 | 36024 ft | 464 kts | 239° |
| 2026-04-26 13:39 | 58.76303 | 19.65481 | 36022 ft | 463 kts | 240° |
| 2026-04-26 13:40 | 58.72269 | 19.55886 | 36035 ft | 463 kts | 240° |
| 2026-04-26 13:40 | 58.68238 | 19.46335 | 36034 ft | 463 kts | 239° |
| 2026-04-26 13:41 | 58.64195 | 19.36798 | 36041 ft | 462 kts | 240° |
| 2026-04-26 13:41 | 58.60155 | 19.27302 | 36048 ft | 463 kts | 239° |
| 2026-04-26 13:42 | 58.56103 | 19.17817 | 36048 ft | 463 kts | 239° |
| 2026-04-26 13:42 | 58.52018 | 19.08296 | 36052 ft | 463 kts | 239° |
| 2026-04-26 13:43 | 58.47949 | 18.98855 | 36054 ft | 461 kts | 239° |
| 2026-04-26 13:43 | 58.43890 | 18.89473 | 36057 ft | 461 kts | 239° |
| 2026-04-26 13:44 | 58.39830 | 18.80120 | 36059 ft | 461 kts | 239° |
| 2026-04-26 13:44 | 58.35762 | 18.70786 | 36064 ft | 460 kts | 239° |
| 2026-04-26 13:45 | 58.31684 | 18.61468 | 36057 ft | 460 kts | 239° |
| 2026-04-26 13:45 | 58.27616 | 18.52215 | 36071 ft | 458 kts | 239° |
| 2026-04-26 13:46 | 58.23540 | 18.42971 | 36068 ft | 459 kts | 239° |
| 2026-04-26 13:46 | 58.19430 | 18.33695 | 36081 ft | 459 kts | 239° |
| 2026-04-26 13:47 | 58.15346 | 18.24506 | 36081 ft | 458 kts | 238° |
| 2026-04-26 13:47 | 58.11270 | 18.15379 | 36075 ft | 458 kts | 239° |
| 2026-04-26 13:48 | 58.07146 | 18.06175 | 36078 ft | 459 kts | 239° |
| 2026-04-26 13:48 | 58.03052 | 17.97072 | 36082 ft | 457 kts | 239° |
| 2026-04-26 13:49 | 57.98931 | 17.87952 | 36085 ft | 457 kts | 239° |
| 2026-04-26 13:49 | 57.94845 | 17.78938 | 36100 ft | 457 kts | 239° |
| 2026-04-26 13:50 | 57.90730 | 17.69898 | 35824 ft | 457 kts | 239° |
| 2026-04-26 13:50 | 57.88667 | 17.65376 | 36248 ft | 458 kts | 239° |
| 2026-04-26 13:50 | 57.86587 | 17.60823 | 36036 ft | 458 kts | 239° |
| 2026-04-26 13:51 | 57.82456 | 17.51818 | 36085 ft | 458 kts | 239° |
| 2026-04-26 13:51 | 57.78323 | 17.42843 | 36106 ft | 457 kts | 239° |
| 2026-04-26 13:52 | 57.74169 | 17.33859 | 36103 ft | 456 kts | 238° |
| 2026-04-26 13:52 | 57.70026 | 17.24929 | 36121 ft | 457 kts | 238° |
| 2026-04-26 13:53 | 57.65886 | 17.16037 | 36111 ft | 456 kts | 238° |
| 2026-04-26 13:53 | 57.61749 | 17.07183 | 36099 ft | 456 kts | 238° |
| 2026-04-26 13:54 | 57.57575 | 16.98292 | 36122 ft | 456 kts | 238° |
| 2026-04-26 13:54 | 57.53413 | 16.89458 | 36127 ft | 454 kts | 238° |
| 2026-04-26 13:55 | 57.47882 | 16.77764 | 36123 ft | 453 kts | 238° |
| 2026-04-26 13:56 | 57.40951 | 16.63197 | 36137 ft | 453 kts | 238° |
| 2026-04-26 13:56 | 57.36768 | 16.54447 | 36145 ft | 453 kts | 238° |
| 2026-04-26 13:57 | 57.32562 | 16.45679 | 36133 ft | 453 kts | 238° |
| 2026-04-26 13:57 | 57.28387 | 16.37014 | 36147 ft | 452 kts | 238° |
| 2026-04-26 13:58 | 57.24211 | 16.28381 | 36143 ft | 452 kts | 237° |
| 2026-04-26 13:58 | 57.20037 | 16.19778 | 36150 ft | 451 kts | 237° |
| 2026-04-26 13:59 | 57.15862 | 16.11207 | 36154 ft | 451 kts | 237° |
| 2026-04-26 13:59 | 57.11679 | 16.02648 | 36155 ft | 450 kts | 237° |
| 2026-04-26 14:00 | 57.03310 | 15.85621 | 36147 ft | 450 kts | 237° |
| 2026-04-26 14:01 | 56.99103 | 15.77110 | 36159 ft | 449 kts | 237° |
| 2026-04-26 14:01 | 56.94923 | 15.68679 | 36150 ft | 449 kts | 237° |
| 2026-04-26 14:02 | 56.90757 | 15.60309 | 36159 ft | 448 kts | 237° |
| 2026-04-26 14:02 | 56.86569 | 15.51928 | 36152 ft | 447 kts | 237° |
| 2026-04-26 14:03 | 56.82389 | 15.43586 | 36161 ft | 448 kts | 237° |
| 2026-04-26 14:03 | 56.78190 | 15.35243 | 36180 ft | 447 kts | 237° |
| 2026-04-26 14:04 | 56.73992 | 15.26928 | 36164 ft | 448 kts | 236° |
| 2026-04-26 14:04 | 56.69786 | 15.18623 | 36165 ft | 447 kts | 236° |
| 2026-04-26 14:05 | 56.65589 | 15.10377 | 36166 ft | 446 kts | 236° |
| 2026-04-26 14:05 | 56.61371 | 15.02109 | 36170 ft | 447 kts | 236° |
| 2026-04-26 14:06 | 56.57153 | 14.93872 | 36172 ft | 446 kts | 235° |
| 2026-04-26 14:06 | 56.52969 | 14.85730 | 36175 ft | 445 kts | 235° |
| 2026-04-26 14:07 | 56.48763 | 14.77576 | 36176 ft | 444 kts | 235° |
| 2026-04-26 14:07 | 56.44541 | 14.69420 | 36180 ft | 444 kts | 235° |
| 2026-04-26 14:08 | 56.40346 | 14.61339 | 36183 ft | 443 kts | 235° |
| 2026-04-26 14:08 | 56.36115 | 14.53217 | 36185 ft | 443 kts | 235° |
| 2026-04-26 14:09 | 56.31897 | 14.45151 | 36193 ft | 442 kts | 235° |
| 2026-04-26 14:09 | 56.27680 | 14.37114 | 36197 ft | 442 kts | 235° |
| 2026-04-26 14:10 | 56.23452 | 14.29085 | 36203 ft | 442 kts | 234° |
| 2026-04-26 14:10 | 56.19247 | 14.21125 | 36207 ft | 442 kts | 234° |
| 2026-04-26 14:11 | 56.12912 | 14.09183 | 36212 ft | 441 kts | 234° |
| 2026-04-26 14:11 | 56.08684 | 14.01249 | 36218 ft | 441 kts | 234° |
| 2026-04-26 14:12 | 56.04469 | 13.93371 | 36221 ft | 440 kts | 234° |
| 2026-04-26 14:12 | 56.00240 | 13.85487 | 36222 ft | 440 kts | 234° |
| 2026-04-26 14:13 | 55.93915 | 13.73745 | 36225 ft | 438 kts | 233° |
| 2026-04-26 14:14 | 55.89691 | 13.65940 | 36225 ft | 438 kts | 233° |
| 2026-04-26 14:14 | 55.85451 | 13.58127 | 36232 ft | 437 kts | 233° |
| 2026-04-26 14:15 | 55.81261 | 13.50431 | 36239 ft | 437 kts | 233° |
| 2026-04-26 14:15 | 55.77033 | 13.42694 | 36246 ft | 437 kts | 233° |
| 2026-04-26 14:16 | 55.72823 | 13.35017 | 36254 ft | 436 kts | 233° |
| 2026-04-26 14:16 | 55.68574 | 13.27292 | 36259 ft | 436 kts | 232° |
| 2026-04-26 14:17 | 55.64357 | 13.19649 | 36259 ft | 436 kts | 232° |
| 2026-04-26 14:17 | 55.60141 | 13.12033 | 36261 ft | 436 kts | 232° |
| 2026-04-26 14:18 | 55.55892 | 13.04386 | 36264 ft | 435 kts | 232° |
| 2026-04-26 14:18 | 55.51678 | 12.96826 | 36268 ft | 435 kts | 232° |
| 2026-04-26 14:19 | 55.47443 | 12.89251 | 36266 ft | 435 kts | 232° |
| 2026-04-26 14:19 | 55.43221 | 12.81726 | 36269 ft | 435 kts | 232° |
| 2026-04-26 14:20 | 55.38967 | 12.74165 | 36269 ft | 435 kts | 232° |
| 2026-04-26 14:20 | 55.34719 | 12.66641 | 36269 ft | 434 kts | 232° |
| 2026-04-26 14:21 | 55.30490 | 12.59173 | 36270 ft | 433 kts | 232° |
| 2026-04-26 14:21 | 55.26265 | 12.51737 | 36269 ft | 434 kts | 231° |
| 2026-04-26 14:22 | 55.22022 | 12.44295 | 36270 ft | 434 kts | 231° |
| 2026-04-26 14:22 | 55.17764 | 12.36851 | 36274 ft | 433 kts | 231° |
| 2026-04-26 14:23 | 55.13480 | 12.29386 | 36205 ft | 430 kts | 231° |
| 2026-04-26 14:23 | 55.11401 | 12.25777 | 35818 ft | 427 kts | 231° |
| 2026-04-26 14:23 | 55.09278 | 12.22091 | 35231 ft | 427 kts | 231° |
| 2026-04-26 14:23 | 55.07190 | 12.18473 | 34684 ft | 425 kts | 231° |
| 2026-04-26 14:24 | 55.05104 | 12.14859 | 34054 ft | 424 kts | 231° |
| 2026-04-26 14:24 | 55.03040 | 12.11288 | 33354 ft | 425 kts | 231° |
| 2026-04-26 14:24 | 55.00937 | 12.07653 | 32587 ft | 427 kts | 231° |
| 2026-04-26 14:24 | 54.98843 | 12.04044 | 31803 ft | 428 kts | 230° |
| 2026-04-26 14:25 | 54.96744 | 12.00430 | 31003 ft | 430 kts | 230° |
| 2026-04-26 14:25 | 54.94622 | 11.96786 | 30160 ft | 432 kts | 230° |
| 2026-04-26 14:25 | 54.92485 | 11.93120 | 29309 ft | 434 kts | 230° |
| 2026-04-26 14:25 | 54.90355 | 11.89478 | 28706 ft | 429 kts | 230° |
| 2026-04-26 14:26 | 54.88234 | 11.85861 | 28143 ft | 424 kts | 230° |
| 2026-04-26 14:26 | 54.86145 | 11.82298 | 27551 ft | 419 kts | 230° |
| 2026-04-26 14:26 | 54.84085 | 11.78789 | 26957 ft | 416 kts | 230° |
| 2026-04-26 14:26 | 54.82025 | 11.75285 | 26353 ft | 412 kts | 230° |
| 2026-04-26 14:27 | 54.79996 | 11.71834 | 25753 ft | 409 kts | 230° |
| 2026-04-26 14:27 | 54.77979 | 11.68412 | 25162 ft | 405 kts | 230° |
| 2026-04-26 14:27 | 54.75986 | 11.65033 | 24587 ft | 402 kts | 230° |
| 2026-04-26 14:27 | 54.73998 | 11.61671 | 24020 ft | 398 kts | 230° |
| 2026-04-26 14:28 | 54.72034 | 11.58353 | 23445 ft | 395 kts | 230° |
| 2026-04-26 14:28 | 54.70080 | 11.55057 | 22838 ft | 393 kts | 230° |
| 2026-04-26 14:28 | 54.68145 | 11.51794 | 22244 ft | 390 kts | 230° |
| 2026-04-26 14:28 | 54.66209 | 11.48536 | 21665 ft | 388 kts | 230° |
| 2026-04-26 14:29 | 54.64296 | 11.45320 | 21089 ft | 385 kts | 230° |
| 2026-04-26 14:29 | 54.62321 | 11.42205 | 20491 ft | 387 kts | 225° |
| 2026-04-26 14:29 | 54.60210 | 11.39370 | 19933 ft | 386 kts | 223° |
| 2026-04-26 14:29 | 54.58079 | 11.36606 | 19370 ft | 383 kts | 223° |
| 2026-04-26 14:30 | 54.55971 | 11.33858 | 18801 ft | 381 kts | 223° |
| 2026-04-26 14:30 | 54.53876 | 11.31109 | 18238 ft | 380 kts | 223° |
| 2026-04-26 14:30 | 54.51785 | 11.28347 | 17701 ft | 378 kts | 223° |
| 2026-04-26 14:30 | 54.49717 | 11.25604 | 17179 ft | 375 kts | 223° |
| 2026-04-26 14:31 | 54.47654 | 11.22866 | 16659 ft | 373 kts | 223° |
| 2026-04-26 14:31 | 54.45626 | 11.20173 | 16151 ft | 370 kts | 223° |
| 2026-04-26 14:31 | 54.43601 | 11.17485 | 15637 ft | 367 kts | 223° |
| 2026-04-26 14:31 | 54.41592 | 11.14819 | 15135 ft | 364 kts | 223° |
| 2026-04-26 14:32 | 54.39595 | 11.12173 | 14620 ft | 362 kts | 223° |
| 2026-04-26 14:32 | 54.37619 | 11.09556 | 14093 ft | 360 kts | 222° |
| 2026-04-26 14:32 | 54.35666 | 11.06973 | 13593 ft | 358 kts | 222° |
| 2026-04-26 14:32 | 54.33700 | 11.04374 | 13088 ft | 356 kts | 222° |
| 2026-04-26 14:33 | 54.31743 | 11.01792 | 12589 ft | 354 kts | 222° |
| 2026-04-26 14:33 | 54.29803 | 10.99235 | 12097 ft | 351 kts | 222° |
| 2026-04-26 14:33 | 54.27880 | 10.96707 | 11615 ft | 349 kts | 222° |
| 2026-04-26 14:33 | 54.25983 | 10.94214 | 11124 ft | 346 kts | 221° |
| 2026-04-26 14:34 | 54.24073 | 10.91706 | 10642 ft | 344 kts | 221° |
| 2026-04-26 14:34 | 54.22207 | 10.89258 | 10154 ft | 342 kts | 221° |
| 2026-04-26 14:34 | 54.20335 | 10.86807 | 9809 ft | 333 kts | 221° |
| 2026-04-26 14:34 | 54.18527 | 10.84445 | 9487 ft | 325 kts | 221° |
| 2026-04-26 14:35 | 54.16758 | 10.82135 | 9166 ft | 315 kts | 221° |
| 2026-04-26 14:35 | 54.15058 | 10.79917 | 8864 ft | 306 kts | 221° |
| 2026-04-26 14:35 | 54.13378 | 10.77726 | 8544 ft | 298 kts | 221° |
| 2026-04-26 14:35 | 54.11758 | 10.75612 | 8234 ft | 293 kts | 221° |
| 2026-04-26 14:36 | 54.10166 | 10.73537 | 7927 ft | 287 kts | 221° |
| 2026-04-26 14:36 | 54.08593 | 10.71489 | 7616 ft | 282 kts | 221° |
| 2026-04-26 14:36 | 54.07064 | 10.69504 | 7327 ft | 276 kts | 221° |
| 2026-04-26 14:36 | 54.05550 | 10.67538 | 7077 ft | 270 kts | 220° |
| 2026-04-26 14:37 | 54.04060 | 10.65603 | 6717 ft | 268 kts | 220° |
| 2026-04-26 14:37 | 54.02603 | 10.63712 | 6355 ft | 266 kts | 220° |
| 2026-04-26 14:37 | 54.01135 | 10.61811 | 5985 ft | 264 kts | 220° |
| 2026-04-26 14:37 | 53.99670 | 10.59915 | 5602 ft | 263 kts | 219° |
| 2026-04-26 14:38 | 53.98217 | 10.58038 | 5239 ft | 262 kts | 219° |
| 2026-04-26 14:38 | 53.96786 | 10.56192 | 4883 ft | 261 kts | 219° |
| 2026-04-26 14:38 | 53.95336 | 10.54323 | 4518 ft | 259 kts | 219° |
| 2026-04-26 14:38 | 53.94385 | 10.53097 | 4289 ft | 258 kts | 219° |
| 2026-04-26 14:39 | 53.92489 | 10.50656 | 3909 ft | 254 kts | 219° |
| 2026-04-26 14:39 | 53.91067 | 10.48828 | 3937 ft | 258 kts | 219° |
| 2026-04-26 14:39 | 53.89644 | 10.47001 | 3951 ft | 254 kts | 219° |
| 2026-04-26 14:39 | 53.88279 | 10.45253 | 3955 ft | 238 kts | 219° |
| 2026-04-26 14:40 | 53.86991 | 10.43603 | 3958 ft | 225 kts | 219° |
| 2026-04-26 14:40 | 53.85745 | 10.42006 | 3959 ft | 225 kts | 219° |
| 2026-04-26 14:40 | 53.84503 | 10.40413 | 3962 ft | 225 kts | 219° |
| 2026-04-26 14:40 | 53.83192 | 10.38904 | 3959 ft | 226 kts | 217° |
| 2026-04-26 14:41 | 53.81973 | 10.37258 | 3960 ft | 226 kts | 226° |
| 2026-04-26 14:41 | 53.80908 | 10.35289 | 3961 ft | 225 kts | 233° |
| 2026-04-26 14:41 | 53.79961 | 10.33203 | 3964 ft | 225 kts | 234° |
| 2026-04-26 14:41 | 53.79029 | 10.31154 | 3953 ft | 216 kts | 233° |
| 2026-04-26 14:42 | 53.78097 | 10.29181 | 3949 ft | 215 kts | 232° |
| 2026-04-26 14:42 | 53.77149 | 10.27232 | 3950 ft | 216 kts | 231° |
| 2026-04-26 14:42 | 53.76194 | 10.25303 | 3849 ft | 208 kts | 231° |
| 2026-04-26 14:42 | 53.75265 | 10.23444 | 3585 ft | 207 kts | 231° |
| 2026-04-26 14:43 | 53.74337 | 10.21591 | 3306 ft | 207 kts | 231° |
| 2026-04-26 14:43 | 53.73408 | 10.19735 | 3019 ft | 206 kts | 231° |
| 2026-04-26 14:43 | 53.72488 | 10.17892 | 2747 ft | 206 kts | 231° |
| 2026-04-26 14:43 | 53.71577 | 10.16064 | 2552 ft | 199 kts | 231° |
| 2026-04-26 14:44 | 53.70711 | 10.14323 | 2292 ft | 193 kts | 231° |
| 2026-04-26 14:44 | 53.69872 | 10.12634 | 1994 ft | 181 kts | 231° |
| 2026-04-26 14:44 | 53.69097 | 10.11073 | 1734 ft | 171 kts | 232° |
| 2026-04-26 14:44 | 53.68364 | 10.09595 | 1529 ft | 157 kts | 232° |
| 2026-04-26 14:45 | 53.67696 | 10.08248 | 1302 ft | 144 kts | 232° |
| 2026-04-26 14:45 | 53.67278 | 10.07403 | 1168 ft | 137 kts | 232° |
| 2026-04-26 14:45 | 53.66469 | 10.05767 | 945 ft | 135 kts | 232° |
| 2026-04-26 14:45 | 53.65874 | 10.04565 | 778 ft | 134 kts | 232° |
| 2026-04-26 14:46 | 53.65269 | 10.03342 | 599 ft | 134 kts | 232° |
| 2026-04-26 14:46 | 53.64676 | 10.02145 | 423 ft | 134 kts | 232° |
| 2026-04-26 14:46 | 53.64084 | 10.00948 | 239 ft | 133 kts | 232° |
| 2026-04-26 14:46 | 53.63489 | 9.99744 | 72 ft | 131 kts | 232° |
| 2026-04-26 14:47 | 53.62974 | 9.98699 | 62 ft | 93 kts | 230° |
| 2026-04-26 14:47 | 53.62669 | 9.98080 | 62 ft | 46 kts | 231° |
| 2026-04-26 14:47 | 53.62546 | 9.97836 | 62 ft | 16 kts | 226° |
| 2026-04-26 14:47 | 53.62454 | 9.97817 | 62 ft | 11 kts | 140° |
| 2026-04-26 14:48 | 53.62434 | 9.97935 | 62 ft | 11 kts | 82° |
| 2026-04-26 14:48 | 53.62465 | 9.98083 | 62 ft | 16 kts | 60° |
| 2026-04-26 14:48 | 53.62545 | 9.98258 | 62 ft | 19 kts | 50° |
| 2026-04-26 14:48 | 53.62632 | 9.98436 | 62 ft | 19 kts | 50° |
| 2026-04-26 14:49 | 53.62720 | 9.98612 | 62 ft | 20 kts | 50° |
| 2026-04-26 14:49 | 53.62813 | 9.98798 | 62 ft | 21 kts | 51° |
| 2026-04-26 14:49 | 53.62909 | 9.98993 | 62 ft | 22 kts | 50° |
| 2026-04-26 14:49 | 53.62996 | 9.99169 | 62 ft | 19 kts | 50° |
| 2026-04-26 14:50 | 53.63079 | 9.99351 | 62 ft | 19 kts | 54° |
| 2026-04-26 14:50 | 53.63157 | 9.99537 | 62 ft | 19 kts | 52° |
| 2026-04-26 14:50 | 53.63216 | 9.99656 | 62 ft | 9 kts | 53° |
| 2026-04-26 14:50 | 53.63212 | 9.99763 | 62 ft | 10 kts | 134° |
| 2026-04-26 14:51 | 53.63142 | 9.99832 | 62 ft | 12 kts | 152° |
| 2026-04-26 14:51 | 53.63064 | 9.99900 | 62 ft | 13 kts | 153° |
| 2026-04-26 14:51 | 53.62982 | 9.99967 | 62 ft | 9 kts | 154° |
| 2026-04-26 14:51 | 53.62945 | 10.00057 | 62 ft | 9 kts | 88° |
| 2026-04-26 14:52 | 53.62991 | 10.00139 | 62 ft | 10 kts | 32° |
| 2026-04-26 14:52 | 53.63051 | 10.00204 | 62 ft | 5 kts | 33° |
| 2026-04-26 14:52 | 53.63067 | 10.00248 | 62 ft | 4 kts | 111° |
| 2026-04-26 14:52 | 53.63049 | 10.00301 | 62 ft | 5 kts | 122° |
| 2026-04-26 14:53 | 53.63034 | 10.00340 | 62 ft | 0 kts | 123° |
| 2026-04-26 14:53 | 53.63031 | 10.00347 | 62 ft | 0 kts | 123° |